| Date | Time | Temp. (oF) | Dew Point (oF) | Rel. Hum. (%) | Press. (in.) | Wind Dir. | Wind Speed (mph) | Hourly Rainfall (in.) |
|
|---|---|---|---|---|---|---|---|---|---|
| 1 | 11/18 | 00:00 | 45 | 39 | 81 | 30.05 | W | 5 | 0.00 |
| 2 | 11/17 | 23:00 | 46 | 39 | 78 | 30.04 | SW | 2 | 0.00 |
| 3 | 11/17 | 22:00 | 47 | 39 | 74 | 30.02 | WNW | 8 | 0.00 |
| 4 | 11/17 | 21:00 | 47 | 38 | 71 | 30.00 | NW | 5 | 0.00 |
| 5 | 11/17 | 20:00 | 48 | 37 | 68 | 29.97 | WSW | 4 | 0.00 |
| 6 | 11/17 | 19:00 | 49 | 36 | 62 | 29.95 | W | 3 | 0.00 |
| 7 | 11/17 | 18:00 | 51 | 36 | 57 | 29.91 | W | 5 | 0.00 |
| 8 | 11/17 | 17:00 | 52 | 34 | 52 | 29.87 | N | 8 | 0.00 |
| 9 | 11/17 | 16:00 | 54 | 35 | 50 | 29.82 | SW | 9 | 0.00 |
| 10 | 11/17 | 15:00 | 57 | 37 | 49 | 29.79 | WNW | 8 | 0.00 |
| 11 | 11/17 | 14:00 | 58 | 37 | 47 | 29.76 | WNW | 19 | 0.00 |
| 12 | 11/17 | 13:00 | 57 | 40 | 54 | 29.74 | WNW | 7 | 0.00 |
| 13 | 11/17 | 12:00 | 55 | 40 | 58 | 29.73 | NW | 12 | 0.00 |
| 14 | 11/17 | 11:00 | 55 | 42 | 63 | 29.71 | NW | 10 | 0.00 |
| 15 | 11/17 | 10:00 | 56 | 43 | 64 | 29.70 | WSW | 21 | 0.00 |
| 16 | 11/17 | 09:00 | 55 | 44 | 68 | 29.67 | W | 17 | 0.00 |
| 17 | 11/17 | 08:00 | 54 | 46 | 77 | 29.63 | W | 14 | 0.00 |
| 18 | 11/17 | 07:00 | 54 | 52 | 96 | 29.57 | SSW | 8 | 0.00 |
| 19 | 11/17 | 06:00 | 55 | 54 | 100 | 29.54 | WSW | 9 | 0.00 |
| 20 | 11/17 | 05:00 | 56 | 55 | 99 | 29.50 | SSW | 8 | 0.00 |
| 21 | 11/17 | 04:00 | 57 | 55 | 94 | 29.48 | WSW | 10 | 0.00 |
| 22 | 11/17 | 03:00 | 55 | 45 | 70 | 29.51 | SSW | 4 | 0.27 |
| 23 | 11/17 | 02:00 | 60 | 57 | 92 | 29.55 | SW | 15 | 0.09 |
| 24 | 11/17 | 01:00 | 61 | 49 | 67 | 29.51 | SSW | 16 | 0.01 |